Latest Weather Observations for Middle Percy Island

IDQ60801

Issued at 8:05 pm EST Thursday 21 August 2014 (issued every 30 minutes, with the page automatically refreshed every 10 minutes)

About weather observations | Map of weather stations | Latest weather observations for QLD | Other Formats
Station Details ID: 200001 Name: MIDDLE PERCY ISLAND Lat: -21.66 Lon: 150.27 Height: 208.7 m
Data from the previous 72 hours. | See also: Recent months at Middle Percy Island
Date/Time
EST
Temp
°C
App
Temp
°C
Dew
Point
Rel
Hum
%
Delta-T
°C
Wind Press
QNH
hPa
Press
MSL
hPa
Rain
since 9 am
mm
Dir
 
Spd
km/h
Gust
km/h
Spd
kts
Gust
kts
21/08:00pm 17.2 15.6 15.9 92 0.8 SE 19 26 10 14 1020.5 1019.8 0.0
21/07:30pm 17.4 15.8 16.1 92 0.8 SE 19 28 10 15 1020.0 1019.4 0.0
21/07:00pm 17.5 15.8 16.2 92 0.8 SSE 20 32 11 17 1019.7 1019.1 0.0
21/06:30pm 17.4 15.8 16.1 92 0.8 SE 19 26 10 14 1019.3 1018.7 0.0
21/06:00pm 17.5 16.3 16.0 91 0.9 SE 17 24 9 13 1018.9 1018.3 0.0
21/05:30pm 17.8 16.2 16.1 90 1.0 SE 19 26 10 14 1018.7 1018.1 0.0
21/05:00pm 18.4 17.2 16.0 86 1.4 SE 17 24 9 13 1018.4 1017.8 0.0
21/04:30pm 18.9 17.1 15.6 81 2.0 SE 19 26 10 14 1018.2 1017.6 0.0
21/04:00pm 19.7 18.4 15.8 78 2.3 SE 17 24 9 13 1018.0 1017.4 0.0
21/03:30pm 19.4 17.0 15.3 77 2.4 S 22 26 12 14 1017.7 1017.1 0.0
21/03:00pm 19.9 18.0 15.7 77 2.5 S 20 26 11 14 1017.6 1017.0 0.0
21/02:30pm 19.8 17.1 14.6 72 3.1 SSE 22 28 12 15 1017.7 1017.1 0.0
21/02:00pm 19.8 17.0 14.2 70 3.3 S 22 28 12 15 1017.9 1017.3 0.0
21/01:30pm 20.4 18.3 14.7 70 3.4 SSE 19 26 10 14 1018.3 1017.7 0.0
21/01:00pm 20.4 18.6 15.6 74 2.9 SSE 19 30 10 16 1018.8 1018.2 0.0
21/12:30pm 19.8 17.3 15.2 75 2.7 SE 22 33 12 18 1019.1 1018.5 0.0
21/12:00pm 18.8 16.1 14.5 76 2.5 SSE 22 30 12 16 1019.6 1019.0 0.0
21/11:30am 19.5 17.2 14.7 74 2.8 SSE 20 30 11 16 1020.0 1019.4 0.0
21/11:00am 19.1 16.8 14.6 75 2.6 SSE 20 28 11 15 1020.2 1019.6 0.0
21/10:30am 18.5 15.8 14.6 78 2.3 SSE 22 28 12 15 1020.6 1019.9 0.0
21/10:00am 18.4 15.7 13.5 73 2.8 SSE 20 26 11 14 1020.9 1020.2 0.0
21/09:30am 18.8 16.3 13.6 72 3.0 SSE 19 26 10 14 1020.8 1020.1 0.0
21/09:00am 18.7 16.7 13.8 73 2.8 SSE 17 26 9 14 1020.8 1020.1 0.0
21/08:30am 18.2 16.6 13.9 76 2.5 SSE 15 22 8 12 1020.7 1020.0 0.0
21/08:00am 17.4 15.7 13.7 79 2.1 SSE 15 19 8 10 1020.2 1019.6 0.0
21/07:30am 16.6 14.8 13.3 81 1.9 SSE 15 17 8 9 1019.8 1019.2 0.0
21/07:00am 16.1 14.7 13.4 84 1.5 S 13 19 7 10 1019.7 1019.1 0.0
21/06:30am 15.5 14.4 13.2 86 1.3 S 11 15 6 8 1019.4 1018.8 0.0
21/06:00am 15.6 14.3 11.2 75 2.4 S 9 13 5 7 1019.2 1018.6 0.0
21/05:30am 15.6 14.2 10.8 73 2.6 S 9 13 5 7 1019.0 1018.4 0.0
21/05:00am 15.4 14.1 10.0 70 2.8 S 7 11 4 6 1018.8 1018.2 0.0
21/04:30am 15.2 13.9 9.8 70 2.8 S 7 9 4 5 1018.7 1018.1 0.0
21/04:00am 15.5 14.2 9.8 69 3.0 S 7 9 4 5 1018.6 1018.0 0.0
21/03:30am 15.3 14.0 10.1 71 2.7 SSE 7 11 4 6 1018.6 1018.0 0.0
21/03:00am 15.9 14.9 10.2 69 3.0 SSE 6 9 3 5 1018.8 1018.2 0.0
21/02:30am 15.8 14.4 9.5 66 3.3 ESE 7 9 4 5 1019.1 1018.5 0.0
21/02:00am 16.1 14.8 9.8 66 3.3 E 7 11 4 6 1019.5 1018.9 0.0
21/01:30am 16.4 14.9 10.5 68 3.2 E 9 15 5 8 1019.7 1019.1 0.0
21/01:00am 16.6 14.7 10.5 67 3.3 E 11 15 6 8 1019.9 1019.3 0.0
21/12:30am 16.5 14.9 10.1 66 3.4 E 9 17 5 9 1020.1 1019.5 0.0
21/12:00am 16.6 14.8 10.9 69 3.1 E 11 17 6 9 1020.1 1019.5 0.0
 
Date/Time
EST
Temp
°C
App
Temp
°C
Dew
Point
Rel
Hum
%
Delta-T
°C
Wind Press
QNH
hPa
Press
MSL
hPa
Rain
since 9 am
mm
Dir
 
Spd
km/h
Gust
km/h
Spd
kts
Gust
kts
20/11:30pm 16.5 14.9 11.4 72 2.8 ENE 11 17 6 9 1020.1 1019.5 0.0
20/11:00pm 17.0 14.6 11.5 70 3.0 ENE 15 20 8 11 1020.1 1019.5 0.0
20/10:30pm 16.9 14.8 11.2 69 3.1 ENE 13 19 7 10 1020.1 1019.5 0.0
20/10:00pm 16.9 14.8 11.0 68 3.2 NE 13 20 7 11 1020.4 1019.7 0.0
20/09:30pm 17.2 14.5 10.3 64 3.7 NE 15 24 8 13 1020.4 1019.7 0.0
20/09:00pm 17.0 14.4 10.6 66 3.4 ENE 15 26 8 14 1020.5 1019.8 0.0
20/08:30pm 17.0 14.2 10.1 64 3.7 ENE 15 24 8 13 1020.6 1019.9 0.0
20/08:00pm 16.9 14.6 10.3 65 3.5 ENE 13 19 7 10 1020.7 1020.0 0.0
20/07:30pm 16.9 14.6 10.5 66 3.4 E 13 19 7 10 1020.2 1019.6 0.0
20/07:00pm 17.0 14.7 10.4 65 3.5 E 13 20 7 11 1019.7 1019.1 0.0
20/06:30pm 16.9 15.1 10.7 67 3.3 E 11 17 6 9 1019.4 1018.8 0.0
20/06:00pm 16.6 15.0 10.2 66 3.4 E 9 11 5 6 1019.0 1018.4 0.0
20/05:30pm 16.9 15.6 9.8 63 3.8 E 7 11 4 6 1018.8 1018.2 0.0
20/05:00pm 18.2 16.9 9.8 58 4.5 ESE 7 9 4 5 1018.6 1018.0 0.0
20/04:30pm 18.9 17.7 10.2 57 4.7 ESE 7 13 4 7 1018.5 1017.9 0.0
20/04:00pm 18.8 16.8 10.1 57 4.7 ESE 11 17 6 9 1018.0 1017.4 0.0
20/03:30pm 19.9 17.8 8.3 47 6.1 ESE 9 13 5 7 1018.0 1017.4 0.0
20/03:00pm 19.9 17.8 8.3 47 6.1 SE 9 17 5 9 1017.7 1017.1 0.0
20/02:30pm 20.1 17.2 6.5 41 6.9 SE 11 17 6 9 1017.9 1017.3 0.0
20/02:00pm 20.9 18.2 7.5 42 7.0 SE 11 20 6 11 1018.1 1017.5 0.0
20/01:30pm 20.5 16.8 6.1 39 7.3 SSE 15 20 8 11 1018.3 1017.7 0.0
20/01:00pm 20.3 16.6 6.3 40 7.1 SSE 15 20 8 11 1018.8 1018.2 0.0
20/12:30pm 20.6 17.1 7.2 42 6.9 SE 15 22 8 12 1018.8 1018.2 0.0
20/12:00pm 21.1 18.4 10.3 50 5.9 SE 15 22 8 12 1019.0 1018.4 0.0
20/11:30am 19.8 16.5 9.7 52 5.4 SSE 17 26 9 14 1019.5 1018.9 0.0
20/11:00am 20.2 17.3 9.5 50 5.7 SE 15 22 8 12 1019.9 1019.3 0.0
20/10:30am 20.1 17.8 10.5 54 5.3 SE 13 20 7 11 1020.4 1019.7 0.0
20/10:00am 19.6 17.5 11.1 58 4.7 SSE 13 19 7 10 1020.4 1019.7 0.0
20/09:30am 19.3 16.7 12.1 63 4.0 SE 17 20 9 11 1020.5 1019.8 0.0
20/09:00am 18.7 15.9 11.5 63 4.0 SSE 17 24 9 13 1020.1 1019.5 0.0
20/08:30am 18.3 15.4 11.1 63 3.9 SE 17 24 9 13 1020.0 1019.4 0.0
20/08:00am 17.8 15.2 10.7 63 3.8 SE 15 20 8 11 1019.9 1019.3 0.0
20/07:30am 17.0 15.2 10.8 67 3.4 SE 11 19 6 10 1019.6 1019.0 0.0
20/07:00am 16.3 13.9 9.9 66 3.4 SE 13 20 7 11 1019.3 1018.7 0.0
20/06:30am 15.4 12.8 9.5 68 3.1 SSE 13 17 7 9 1019.1 1018.5 0.0
20/06:00am 15.8 13.8 11.6 76 2.3 SSE 13 19 7 10 1019.0 1018.4 0.0
20/05:30am 15.5 14.7 12.8 84 1.5 S 9 13 5 7 1019.1 1018.5 0.0
20/05:00am 15.8 14.6 12.9 83 1.6 S 11 15 6 8 1018.8 1018.2 0.0
20/04:30am 15.8 15.1 13.1 84 1.5 SSW 9 13 5 7 1018.5 1017.9 0.0
20/04:00am 16.1 15.9 11.9 76 2.3 W 4 9 2 5 1018.4 1017.8 0.0
20/03:30am 16.3 16.3 12.5 78 2.1 WNW 4 6 2 3 1018.2 1017.6 0.0
20/03:00am 16.2 15.7 12.2 77 2.2 NW 6 7 3 4 1018.3 1017.7 0.0
20/02:30am 16.3 15.7 12.3 77 2.2 WNW 7 7 4 4 1018.4 1017.8 0.0
20/02:00am 16.3 15.6 12.1 76 2.3 WNW 7 9 4 5 1018.5 1017.9 0.0
20/01:30am 16.4 15.7 12.0 75 2.4 W 7 9 4 5 1018.5 1017.9 0.0
20/01:00am 16.5 16.0 11.9 74 2.5 W 6 7 3 4 1018.5 1017.9 0.0
20/12:30am 16.1 15.4 11.3 73 2.6 W 6 9 3 5 1018.5 1017.9 0.0
20/12:00am 16.4 15.3 10.5 68 3.2 W 7 11 4 6 1018.4 1017.8 0.0
 
Date/Time
EST
Temp
°C
App
Temp
°C
Dew
Point
Rel
Hum
%
Delta-T
°C
Wind Press
QNH
hPa
Press
MSL
hPa
Rain
since 9 am
mm
Dir
 
Spd
km/h
Gust
km/h
Spd
kts
Gust
kts
19/11:30pm 16.5 15.3 10.4 67 3.3 WSW 7 11 4 6 1018.4 1017.8 0.0
19/11:00pm 17.0 15.6 9.4 61 4.0 WSW 7 11 4 6 1018.4 1017.8 0.0
19/10:30pm 16.8 15.6 9.5 62 3.8 NW 6 6 3 3 1018.6 1018.0 0.0
19/10:00pm 16.9 15.8 8.6 58 4.3 NW 4 6 2 3 1018.6 1018.0 0.0
19/09:30pm 16.6 15.4 9.5 63 3.7 N 6 7 3 4 1018.4 1017.8 0.0
19/09:00pm 16.9 15.8 8.6 58 4.3 NNW 4 7 2 4 1018.3 1017.7 0.0
19/08:30pm 17.8 15.7 5.7 45 6.0 W 6 9 3 5 1018.1 1017.5 0.0
19/08:00pm 18.1 15.8 5.0 42 6.4 WSW 6 9 3 5 1018.0 1017.4 0.0
19/07:30pm 16.5 15.5 9.0 61 3.9 N 4 6 2 3 1017.8 1017.2 0.0
19/07:00pm 16.3 14.9 8.8 61 3.9 N 6 7 3 4 1017.4 1016.8 0.0
19/06:30pm 15.8 14.1 8.5 62 3.7 N 7 11 4 6 1016.9 1016.3 0.0
19/06:00pm 16.6 15.1 8.6 59 4.1 N 6 7 3 4 1016.6 1015.9 0.0
19/05:30pm 17.3 16.2 8.4 56 4.6 N 4 6 2 3 1016.4 1015.7 0.0
19/05:00pm 19.9 18.4 5.2 38 7.3 SW 2 7 1 4 1016.3 1015.6 0.0
19/04:30pm 19.7 17.8 5.0 38 7.2 W 4 6 2 3 1016.1 1015.4 0.0
19/04:00pm 19.3 16.9 5.4 40 6.9 SW 7 9 4 5 1015.9 1015.2 0.0
19/03:30pm 19.5 16.6 4.4 37 7.3 SSW 9 15 5 8 1015.8 1015.1 0.0
19/03:00pm 19.8 17.7 5.8 40 7.0 WSW 6 11 3 6 1016.0 1015.3 0.0
19/02:30pm 19.5 16.5 4.0 36 7.5 SSW 9 13 5 7 1016.3 1015.6 0.0
19/02:00pm 18.7 16.6 8.1 50 5.5 SSW 9 13 5 7 1016.7 1016.0 0.0
19/01:30pm 18.7 16.7 8.7 52 5.2 SSW 9 17 5 9 1017.0 1016.4 0.0
19/01:00pm 18.4 15.5 9.5 56 4.7 S 15 20 8 11 1017.2 1016.6 0.0
19/12:30pm 18.2 14.3 8.5 53 5.1 S 19 24 10 13 1017.6 1017.0 0.0
19/12:00pm 18.3 14.4 8.8 54 5.0 S 19 28 10 15 1018.2 1017.6 0.0
19/11:30am 18.3 14.8 8.8 54 5.0 S 17 22 9 12 1018.7 1018.1 0.0
19/11:00am 18.2 14.5 9.3 56 4.7 S 19 24 10 13 1019.2 1018.6 0.0
19/10:30am 18.0 14.3 9.4 57 4.6 S 19 24 10 13 1019.5 1018.9 0.0
19/10:00am 18.0 14.2 9.1 56 4.7 S 19 26 10 14 1019.7 1019.1 0.0
19/09:30am 18.0 13.3 7.7 51 5.3 S 22 30 12 16 1019.6 1019.0 0.0
19/09:00am 17.5 12.7 8.9 57 4.5 S 24 33 13 18 1019.5 1018.9 0.0
19/08:30am 17.4 12.5 8.5 56 4.6 S 24 32 13 17 1019.4 1018.8 0.0
19/08:00am 17.1 11.1 6.9 51 5.1 S 28 37 15 20 1019.1 1018.5 0.0
19/07:30am 16.8 10.8 7.2 53 4.8 S 28 37 15 20 1018.8 1018.2 0.0
19/07:00am 16.6 10.2 7.0 53 4.8 S 30 43 16 23 1018.3 1017.7 0.0
19/06:30am 16.7 10.6 6.8 52 4.9 S 28 43 15 23 1018.1 1017.5 0.0
19/06:00am 17.0 11.3 6.8 51 5.1 S 26 37 14 20 1017.8 1017.2 0.0
19/05:30am 17.3 11.0 5.6 46 5.7 SSW 28 39 15 21 1017.5 1016.9 0.0
19/05:00am 17.3 13.2 8.7 57 4.5 SSW 20 30 11 16 1017.4 1016.8 0.0
19/04:30am 17.1 14.1 11.8 71 2.9 SW 19 24 10 13 1017.1 1016.5 0.0
19/04:00am 16.7 15.1 12.8 78 2.2 WSW 13 19 7 10 1017.2 1016.6 0.0
19/03:30am 16.6 16.1 13.9 84 1.5 WNW 9 13 5 7 1017.3 1016.7 0.0
19/03:00am 16.5 15.6 13.8 84 1.5 WNW 11 13 6 7 1017.3 1016.7 0.0
19/02:30am 16.4 15.6 14.1 86 1.3 NW 11 15 6 8 1017.3 1016.7 0.0
19/02:00am 16.4 15.3 14.4 88 1.2 NW 13 17 7 9 1017.2 1016.6 0.0
19/01:30am 16.4 14.9 14.2 87 1.3 NW 15 22 8 12 1017.4 1016.8 0.0
19/01:00am 16.4 14.9 14.1 86 1.3 NW 15 20 8 11 1017.6 1017.0 0.0
19/12:30am 16.6 15.4 14.1 85 1.4 NW 13 19 7 10 1017.6 1017.0 0.0
19/12:00am 16.5 14.9 13.8 84 1.5 NW 15 19 8 10 1017.5 1016.9 0.0
 
Date/Time
EST
Temp
°C
App
Temp
°C
Dew
Point
Rel
Hum
%
Delta-T
°C
Wind Press
QNH
hPa
Press
MSL
hPa
Rain
since 9 am
mm
Dir
 
Spd
km/h
Gust
km/h
Spd
kts
Gust
kts
18/11:30pm 16.1 14.3 13.4 84 1.5 NNW 15 19 8 10 1017.4 1016.8 0.0
18/11:00pm 16.4 14.6 13.3 82 1.7 NNW 15 19 8 10 1017.6 1017.0 0.0
18/10:30pm 16.6 14.8 13.3 81 1.9 NW 15 19 8 10 1017.6 1017.0 0.0
18/10:00pm 16.3 14.5 13.2 82 1.7 NW 15 19 8 10 1017.6 1017.0 0.0
18/09:30pm 16.7 14.8 13.0 79 2.1 NW 15 19 8 10 1017.5 1016.9 0.0
18/09:00pm 16.4 14.3 12.4 77 2.2 NNW 15 19 8 10 1017.3 1016.7 0.0
18/08:30pm 16.4 14.1 11.8 74 2.5 NNW 15 19 8 10 1017.2 1016.6 0.0

Other Formats:

Comma delimited format used in spreadsheet applications
http://www.bom.gov.au/fwo/IDQ60801/IDQ60801.94372.axf

JavaScript Object Notation format (JSON) in row-major order
http://www.bom.gov.au/fwo/IDQ60801/IDQ60801.94372.json